Time;durP1;ratioP1;P1;durP2;ratioP2;P2;SDS_P1;SDS_P2;PMS_P1;PMS_P2;Temp;Humidity;BMP_temperature;BMP_pressure;BME280_temperature;BME280_humidity;BME280_pressure;Samples;Min_cycle;Max_cycle;Signal;HPM_P1;HPM_P2
2024/01/02 00:03:24;;;;;;;7.00;1.60;;;;;;;;;;103772;1292;545037;-71
2024/01/02 00:07:04;;;;;;;7.00;1.90;;;;;;;;;;103765;1289;545120;-72
2024/01/02 00:10:39;;;;;;;6.50;1.20;;;;;;;;;;103755;1289;545439;-71
2024/01/02 00:14:17;;;;;;;6.50;1.40;;;;;;;;;;103853;1292;545487;-71
2024/01/02 00:17:55;;;;;;;6.00;1.50;;;;;;;;;;103519;1294;544994;-71
2024/01/02 00:21:38;;;;;;;5.80;1.40;;;;;;;;;;103709;1289;545126;-72
2024/01/02 00:25:10;;;;;;;5.50;1.40;;;;;;;;;;103686;1289;545433;-71
2024/01/02 00:28:50;;;;;;;6.60;1.30;;;;;;;;;;103659;1292;545180;-71
2024/01/02 00:32:25;;;;;;;4.80;1.30;;;;;;;;;;103809;1289;544729;-71
2024/01/02 00:36:02;;;;;;;6.00;1.20;;;;;;;;;;104010;1292;544883;-70
2024/01/02 00:39:39;;;;;;;7.40;1.50;;;;;;;;;;103745;1291;544985;-70
2024/01/02 00:43:17;;;;;;;7.40;1.30;;;;;;;;;;103805;1301;545343;-71
2024/01/02 00:46:55;;;;;;;9.30;2.00;;;;;;;;;;103840;1293;544802;-71
2024/01/02 00:50:32;;;;;;;6.60;1.30;;;;;;;;;;104074;1289;545554;-72
2024/01/02 00:54:09;;;;;;;7.50;1.40;;;;;;;;;;103927;1289;545897;-70
2024/01/02 00:57:47;;;;;;;8.70;1.90;;;;;;;;;;103754;1292;544861;-72
2024/01/02 01:01:24;;;;;;;8.10;1.70;;;;;;;;;;103869;1290;545483;-72
2024/01/02 01:04:58;;;;;;;7.80;1.90;;;;;;;;;;104534;1292;544848;-71
2024/01/02 01:08:39;;;;;;;13.40;4.50;;;;;;;;;;104642;1292;545549;-71
2024/01/02 01:12:17;;;;;;;8.70;2.10;;;;;;;;;;104684;1291;544996;-69
2024/01/02 01:15:54;;;;;;;8.20;1.80;;;;;;;;;;104729;1291;545463;-69
2024/01/02 01:19:31;;;;;;;6.80;1.70;;;;;;;;;;104710;1289;544822;-72
2024/01/02 01:23:09;;;;;;;8.30;2.10;;;;;;;;;;104704;1295;544761;-73
2024/01/02 01:26:46;;;;;;;8.50;2.30;;;;;;;;;;104933;1289;544913;-71
2024/01/02 01:30:24;;;;;;;6.80;1.40;;;;;;;;;;103895;1292;545135;-72
2024/01/02 01:34:01;;;;;;;7.60;1.70;;;;;;;;;;103778;1292;545409;-71
2024/01/02 01:37:41;;;;;;;6.90;1.60;;;;;;;;;;103785;1289;544962;-71
2024/01/02 01:41:17;;;;;;;7.90;1.80;;;;;;;;;;103834;1290;544857;-72
2024/01/02 01:44:53;;;;;;;9.10;2.00;;;;;;;;;;103839;1300;544999;-73
2024/01/02 01:48:27;;;;;;;12.00;2.50;;;;;;;;;;103965;1289;545700;-72
2024/01/02 01:52:09;;;;;;;10.10;2.60;;;;;;;;;;103685;1291;545082;-69
2024/01/02 01:55:46;;;;;;;9.30;2.10;;;;;;;;;;103977;1293;545507;-72
2024/01/02 01:59:24;;;;;;;10.10;2.10;;;;;;;;;;103960;1289;545102;-72
2024/01/02 02:03:01;;;;;;;9.50;1.80;;;;;;;;;;103794;1292;544949;-71
2024/01/02 02:06:34;;;;;;;7.20;1.60;;;;;;;;;;103818;1288;545888;-73
2024/01/02 02:10:16;;;;;;;9.70;1.80;;;;;;;;;;103447;1291;545075;-70
2024/01/02 02:13:53;;;;;;;8.00;1.80;;;;;;;;;;103753;1295;545878;-70
2024/01/02 02:17:31;;;;;;;8.90;1.70;;;;;;;;;;103709;1292;545768;-71
2024/01/02 02:21:14;;;;;;;10.60;2.00;;;;;;;;;;103480;1292;545170;-72
2024/01/02 02:24:46;;;;;;;10.00;2.20;;;;;;;;;;103781;1289;546030;-72
2024/01/02 02:28:23;;;;;;;9.30;1.80;;;;;;;;;;103727;1289;545439;-71
2024/01/02 02:31:57;;;;;;;7.90;1.80;;;;;;;;;;103816;1289;546478;-71
2024/01/02 02:35:38;;;;;;;11.10;2.20;;;;;;;;;;103766;1289;545027;-71
2024/01/02 02:39:16;;;;;;;8.60;2.00;;;;;;;;;;103878;1290;545013;-72
2024/01/02 02:42:53;;;;;;;8.20;2.10;;;;;;;;;;103673;1299;545779;-72
2024/01/02 02:46:31;;;;;;;9.00;1.90;;;;;;;;;;103673;1295;545129;-71
2024/01/02 02:50:08;;;;;;;9.10;2.00;;;;;;;;;;104029;1285;546003;-72
2024/01/02 02:53:45;;;;;;;9.10;2.00;;;;;;;;;;103782;1295;545027;-72
2024/01/02 02:57:23;;;;;;;9.60;2.50;;;;;;;;;;103857;1289;544954;-72
2024/01/02 03:00:57;;;;;;;9.50;2.30;;;;;;;;;;103882;1289;545327;-72
2024/01/02 03:04:38;;;;;;;10.20;2.50;;;;;;;;;;103697;1289;545435;-73
2024/01/02 03:08:15;;;;;;;10.80;2.40;;;;;;;;;;103689;1291;544773;-72
2024/01/02 03:11:53;;;;;;;10.00;2.80;;;;;;;;;;103630;1291;545067;-70
2024/01/02 03:15:30;;;;;;;9.70;2.60;;;;;;;;;;103638;1297;545454;-72
2024/01/02 03:19:07;;;;;;;9.10;2.00;;;;;;;;;;103595;1289;545072;-70
2024/01/02 03:22:45;;;;;;;10.10;2.60;;;;;;;;;;103481;1291;545010;-72
2024/01/02 03:26:22;;;;;;;12.40;2.80;;;;;;;;;;104517;1288;544810;-71
2024/01/02 03:30:00;;;;;;;11.10;2.70;;;;;;;;;;103738;1291;544827;-70
2024/01/02 03:33:33;;;;;;;9.80;2.70;;;;;;;;;;103991;1289;544897;-72
2024/01/02 03:37:15;;;;;;;11.40;3.00;;;;;;;;;;103513;1295;545043;-71
2024/01/02 03:40:52;;;;;;;12.10;3.30;;;;;;;;;;103618;1291;544991;-70
2024/01/02 03:44:30;;;;;;;11.40;2.90;;;;;;;;;;103817;1292;545808;-72
2024/01/02 03:48:07;;;;;;;13.00;4.10;;;;;;;;;;103742;1292;544993;-71
2024/01/02 03:51:50;;;;;;;12.20;3.40;;;;;;;;;;103468;1292;544924;-71
2024/01/02 03:55:22;;;;;;;15.20;3.50;;;;;;;;;;103694;1292;544790;-71
2024/01/02 03:59:00;;;;;;;10.60;3.10;;;;;;;;;;103560;1295;544778;-71
2024/01/02 04:02:37;;;;;;;8.70;2.50;;;;;;;;;;103872;1290;544898;-70
2024/01/02 04:06:15;;;;;;;9.90;2.40;;;;;;;;;;103635;1289;545528;-72
2024/01/02 04:09:52;;;;;;;9.80;3.80;;;;;;;;;;103834;1289;545309;-72
2024/01/02 04:13:30;;;;;;;9.30;2.90;;;;;;;;;;103569;1291;544730;-70
2024/01/02 04:17:07;;;;;;;11.40;3.10;;;;;;;;;;103638;1290;545644;-70
2024/01/02 04:20:45;;;;;;;11.00;2.70;;;;;;;;;;103460;1291;545192;-71
2024/01/02 04:24:23;;;;;;;10.10;3.00;;;;;;;;;;103734;1292;545011;-71
2024/01/02 04:27:59;;;;;;;10.20;3.20;;;;;;;;;;103692;1292;545075;-72
2024/01/02 04:31:40;;;;;;;11.60;2.90;;;;;;;;;;103557;1288;544775;-72
2024/01/02 04:35:14;;;;;;;8.10;2.60;;;;;;;;;;103589;1294;545761;-72
2024/01/02 04:38:52;;;;;;;8.10;2.40;;;;;;;;;;103856;1289;544865;-71
2024/01/02 04:42:32;;;;;;;7.70;2.10;;;;;;;;;;103602;1291;545726;-71
2024/01/02 04:46:06;;;;;;;10.30;2.80;;;;;;;;;;103579;1290;546006;-71
2024/01/02 04:49:44;;;;;;;9.70;2.40;;;;;;;;;;103581;1291;544742;-72
2024/01/02 04:53:22;;;;;;;10.20;3.10;;;;;;;;;;103550;1289;544831;-72
2024/01/02 04:56:59;;;;;;;11.50;3.20;;;;;;;;;;103759;1290;545514;-71
2024/01/02 05:00:37;;;;;;;10.40;3.20;;;;;;;;;;103524;1291;545025;-71
2024/01/02 05:04:17;;;;;;;11.80;3.20;;;;;;;;;;103466;1294;544793;-70
2024/01/02 05:07:52;;;;;;;11.60;3.50;;;;;;;;;;103550;1293;544771;-70
2024/01/02 05:11:34;;;;;;;13.90;3.80;;;;;;;;;;103785;1292;545427;-71
2024/01/02 05:15:07;;;;;;;14.70;4.20;;;;;;;;;;103666;1290;544999;-71
2024/01/02 05:18:44;;;;;;;10.50;3.90;;;;;;;;;;103763;1289;545962;-72
2024/01/02 05:22:21;;;;;;;11.10;3.50;;;;;;;;;;103575;1291;545022;-71
2024/01/02 05:25:59;;;;;;;11.90;3.20;;;;;;;;;;103818;1296;545250;-71
2024/01/02 05:29:37;;;;;;;11.40;3.20;;;;;;;;;;103919;1289;545063;-71
2024/01/02 05:33:14;;;;;;;11.80;4.00;;;;;;;;;;103795;1295;544830;-71
2024/01/02 05:36:52;;;;;;;15.80;5.70;;;;;;;;;;103697;1289;545408;-71
2024/01/02 05:40:29;;;;;;;13.90;4.20;;;;;;;;;;103497;1292;545430;-71
2024/01/02 05:44:07;;;;;;;14.60;3.60;;;;;;;;;;103778;1290;544947;-71
2024/01/02 05:47:44;;;;;;;12.50;3.80;;;;;;;;;;103415;1292;545004;-71
2024/01/02 05:51:21;;;;;;;12.70;3.60;;;;;;;;;;103755;1289;545264;-71
2024/01/02 05:54:59;;;;;;;11.60;3.70;;;;;;;;;;103605;1294;545547;-71
2024/01/02 05:58:36;;;;;;;12.90;3.90;;;;;;;;;;103562;1292;545006;-72
2024/01/02 06:02:14;;;;;;;12.60;4.30;;;;;;;;;;103545;1291;545924;-70
2024/01/02 06:05:51;;;;;;;14.10;4.60;;;;;;;;;;103652;1292;545080;-72
2024/01/02 06:09:29;;;;;;;11.60;4.00;;;;;;;;;;103807;1295;544738;-72
2024/01/02 06:13:07;;;;;;;11.70;4.20;;;;;;;;;;103485;1291;544991;-71
2024/01/02 06:16:43;;;;;;;13.20;3.70;;;;;;;;;;103561;1291;546348;-71
2024/01/02 06:20:21;;;;;;;13.50;4.40;;;;;;;;;;103565;1295;545061;-72
2024/01/02 06:23:59;;;;;;;12.80;4.40;;;;;;;;;;103524;1291;544988;-72
2024/01/02 06:27:36;;;;;;;13.10;4.50;;;;;;;;;;103646;1292;545252;-70
2024/01/02 06:31:13;;;;;;;12.60;4.40;;;;;;;;;;103519;1291;544805;-70
2024/01/02 06:34:51;;;;;;;13.30;4.10;;;;;;;;;;103801;1289;544763;-72
2024/01/02 06:38:28;;;;;;;13.10;4.00;;;;;;;;;;103571;1292;545700;-71
2024/01/02 06:42:06;;;;;;;13.80;4.10;;;;;;;;;;103760;1292;544786;-72
2024/01/02 06:45:46;;;;;;;15.40;4.20;;;;;;;;;;103527;1292;544797;-70
2024/01/02 06:49:20;;;;;;;13.20;4.10;;;;;;;;;;103892;1289;545474;-71
2024/01/02 06:52:59;;;;;;;10.90;3.40;;;;;;;;;;103565;1291;545267;-72
2024/01/02 06:56:36;;;;;;;12.00;3.60;;;;;;;;;;103743;1301;544781;-71
2024/01/02 07:00:13;;;;;;;12.10;4.20;;;;;;;;;;103485;1292;544865;-71
2024/01/02 07:03:50;;;;;;;16.30;6.00;;;;;;;;;;104019;1289;544962;-70
2024/01/02 07:07:28;;;;;;;17.50;8.10;;;;;;;;;;103652;1304;546025;-71
2024/01/02 07:11:07;;;;;;;18.50;7.20;;;;;;;;;;103579;1289;544891;-71
2024/01/02 07:14:43;;;;;;;16.40;5.70;;;;;;;;;;103792;1289;545564;-71
2024/01/02 07:18:22;;;;;;;14.70;5.80;;;;;;;;;;103713;1300;545517;-71
2024/01/02 07:21:59;;;;;;;16.30;5.70;;;;;;;;;;103504;1292;545083;-71
2024/01/02 07:25:35;;;;;;;15.60;6.60;;;;;;;;;;103758;1292;544861;-71
2024/01/02 07:29:13;;;;;;;17.90;7.10;;;;;;;;;;103650;1292;545014;-70
2024/01/02 07:32:50;;;;;;;15.80;6.40;;;;;;;;;;103763;1292;545514;-71
2024/01/02 07:36:27;;;;;;;13.90;5.80;;;;;;;;;;103738;1292;545695;-72
2024/01/02 07:40:06;;;;;;;14.90;5.70;;;;;;;;;;103612;1289;544858;-70
2024/01/02 07:43:43;;;;;;;13.70;4.90;;;;;;;;;;103759;1291;545392;-71
2024/01/02 07:47:20;;;;;;;11.80;5.30;;;;;;;;;;103853;1291;545319;-71
2024/01/02 07:50:57;;;;;;;15.20;5.80;;;;;;;;;;103855;1290;544889;-71
2024/01/02 07:54:38;;;;;;;16.60;7.40;;;;;;;;;;103882;1292;544975;-72
2024/01/02 07:58:12;;;;;;;19.90;8.90;;;;;;;;;;103778;1295;545133;-71
2024/01/02 08:01:50;;;;;;;21.80;10.00;;;;;;;;;;103730;1291;544958;-71
2024/01/02 08:05:27;;;;;;;20.90;9.30;;;;;;;;;;103735;1292;544842;-71
2024/01/02 08:09:05;;;;;;;18.90;7.60;;;;;;;;;;104115;1285;544823;-71
2024/01/02 08:12:42;;;;;;;14.40;6.10;;;;;;;;;;103740;1293;545246;-71
2024/01/02 08:16:20;;;;;;;13.90;6.10;;;;;;;;;;103976;1288;545806;-72
2024/01/02 08:19:57;;;;;;;11.70;4.60;;;;;;;;;;104129;1289;544900;-71
2024/01/02 08:23:38;;;;;;;13.90;5.80;;;;;;;;;;103907;1289;545522;-71
2024/01/02 08:27:13;;;;;;;10.30;3.90;;;;;;;;;;103855;1289;545833;-71
2024/01/02 08:30:50;;;;;;;9.90;3.60;;;;;;;;;;103819;1291;544934;-71
2024/01/02 08:34:28;;;;;;;13.90;4.70;;;;;;;;;;103562;1291;545609;-71
2024/01/02 08:38:05;;;;;;;9.20;3.50;;;;;;;;;;103618;1291;546004;-72
2024/01/02 08:41:42;;;;;;;11.10;4.00;;;;;;;;;;103869;1292;544995;-72
2024/01/02 08:45:20;;;;;;;10.90;3.90;;;;;;;;;;103698;1291;544998;-72
2024/01/02 08:48:58;;;;;;;9.70;3.00;;;;;;;;;;103666;1300;545000;-71
2024/01/02 08:52:35;;;;;;;10.10;3.30;;;;;;;;;;103781;1288;544825;-72
2024/01/02 08:56:12;;;;;;;12.10;4.50;;;;;;;;;;104085;1285;545079;-71
2024/01/02 08:59:49;;;;;;;15.60;5.10;;;;;;;;;;103858;1289;544765;-71
2024/01/02 09:03:30;;;;;;;15.50;6.00;;;;;;;;;;103740;1289;545117;-71
2024/01/02 09:07:04;;;;;;;23.40;8.80;;;;;;;;;;104145;1286;545056;-71
2024/01/02 09:10:43;;;;;;;24.60;9.70;;;;;;;;;;103665;1289;545927;-71
2024/01/02 09:14:15;;;;;;;13.80;5.90;;;;;;;;;;103763;1293;545058;-71
2024/01/02 09:17:56;;;;;;;16.00;7.20;;;;;;;;;;103738;1291;545556;-72
2024/01/02 09:21:37;;;;;;;17.40;5.60;;;;;;;;;;103893;1292;545031;-72
2024/01/02 09:25:14;;;;;;;13.90;5.60;;;;;;;;;;103643;1291;545006;-72
2024/01/02 09:28:52;;;;;;;15.00;6.20;;;;;;;;;;103610;1302;545077;-72
2024/01/02 09:32:23;;;;;;;15.30;6.70;;;;;;;;;;103935;1290;545629;-71
2024/01/02 09:36:07;;;;;;;12.10;4.90;;;;;;;;;;103510;1292;544747;-70
2024/01/02 09:39:38;;;;;;;12.20;4.80;;;;;;;;;;103993;1292;545764;-72
2024/01/02 09:43:19;;;;;;;9.50;3.00;;;;;;;;;;103708;1292;546227;-71
2024/01/02 09:47:15;;;;;;;10.20;3.40;;;;;;;;;;103445;1293;544912;-69
2024/01/02 09:50:46;;;;;;;11.40;4.70;;;;;;;;;;103645;1291;545592;-70
2024/01/02 09:54:17;;;;;;;19.90;8.00;;;;;;;;;;103615;1289;545000;-70
2024/01/02 09:57:52;;;;;;;19.50;7.70;;;;;;;;;;103914;1290;545892;-71
2024/01/02 10:01:41;;;;;;;19.00;7.20;;;;;;;;;;103747;1297;545059;-70
2024/01/02 10:05:20;;;;;;;14.40;5.10;;;;;;;;;;103642;1297;545835;-72
2024/01/02 10:09:08;;;;;;;12.80;3.90;;;;;;;;;;104027;1292;545383;-72
2024/01/02 10:12:27;;;;;;;10.20;2.80;;;;;;;;;;103791;1291;545553;-71
2024/01/02 10:16:11;;;;;;;13.50;4.00;;;;;;;;;;103426;1295;545084;-71
2024/01/02 10:19:46;;;;;;;10.70;3.70;;;;;;;;;;103604;1291;545046;-72
2024/01/02 10:23:33;;;;;;;14.10;4.70;;;;;;;;;;103937;1289;545338;-71
2024/01/02 10:27:12;;;;;;;12.60;5.10;;;;;;;;;;103618;1289;548133;-71
2024/01/02 10:30:39;;;;;;;15.50;5.10;;;;;;;;;;103859;1289;545060;-72
2024/01/02 10:34:14;;;;;;;11.90;4.40;;;;;;;;;;103657;1290;545771;-73
2024/01/02 10:38:09;;;;;;;9.50;3.40;;;;;;;;;;103803;1292;544746;-72
2024/01/02 10:41:46;;;;;;;12.80;4.00;;;;;;;;;;103649;1291;545523;-72
2024/01/02 10:45:11;;;;;;;13.90;4.20;;;;;;;;;;103617;1289;547782;-72
2024/01/02 10:48:58;;;;;;;12.70;4.20;;;;;;;;;;103738;1288;545735;-72
2024/01/02 10:52:24;;;;;;;12.00;4.10;;;;;;;;;;103565;1292;544795;-73
2024/01/02 10:56:16;;;;;;;13.70;4.80;;;;;;;;;;103727;1291;545002;-71
2024/01/02 10:59:42;;;;;;;10.80;4.00;;;;;;;;;;103566;1291;544952;-72
2024/01/02 11:03:15;;;;;;;11.50;4.00;;;;;;;;;;105814;1289;544875;-71
2024/01/02 11:06:58;;;;;;;12.50;4.40;;;;;;;;;;106389;1282;545828;-70
2024/01/02 11:10:29;;;;;;;9.70;4.10;;;;;;;;;;104998;1283;545864;-72
2024/01/02 11:14:31;;;;;;;11.40;4.10;;;;;;;;;;103547;1293;546001;-71
2024/01/02 11:17:42;;;;;;;13.80;5.20;;;;;;;;;;103661;1300;544833;-72
2024/01/02 11:21:19;;;;;;;16.20;6.60;;;;;;;;;;103642;1292;544864;-71
2024/01/02 11:25:02;;;;;;;16.50;5.80;;;;;;;;;;103663;1291;545498;-72
2024/01/02 11:28:36;;;;;;;14.00;5.50;;;;;;;;;;103786;1292;545310;-73
2024/01/02 11:32:13;;;;;;;12.10;5.00;;;;;;;;;;104085;1287;545590;-72
2024/01/02 11:35:58;;;;;;;9.60;3.70;;;;;;;;;;103762;1293;544994;-72
2024/01/02 11:39:32;;;;;;;11.10;3.50;;;;;;;;;;103772;1291;546114;-72
2024/01/02 11:43:27;;;;;;;8.40;3.20;;;;;;;;;;103771;1288;545358;-69
2024/01/02 11:46:44;;;;;;;9.30;3.60;;;;;;;;;;103789;1301;544968;-72
2024/01/02 11:50:42;;;;;;;10.20;5.00;;;;;;;;;;103502;1292;549424;-72
2024/01/02 11:54:21;;;;;;;9.70;3.80;;;;;;;;;;103677;1291;545698;-72
2024/01/02 11:57:55;;;;;;;7.40;2.70;;;;;;;;;;103656;1295;544721;-72
2024/01/02 12:01:17;;;;;;;11.40;4.20;;;;;;;;;;103617;1289;545424;-72
2024/01/02 12:04:55;;;;;;;8.60;3.20;;;;;;;;;;103529;1290;544874;-72
2024/01/02 12:08:29;;;;;;;9.50;4.00;;;;;;;;;;103583;1292;545036;-71
2024/01/02 12:12:10;;;;;;;10.60;4.60;;;;;;;;;;103727;1289;545368;-72
2024/01/02 12:15:57;;;;;;;12.20;4.80;;;;;;;;;;103729;1288;544823;-71
2024/01/02 12:19:22;;;;;;;10.40;4.50;;;;;;;;;;103564;1289;544971;-72
2024/01/02 12:22:57;;;;;;;11.40;5.10;;;;;;;;;;103645;1291;545730;-72
2024/01/02 12:26:36;;;;;;;10.20;4.70;;;;;;;;;;103442;1290;544932;-72
2024/01/02 12:30:14;;;;;;;8.40;3.20;;;;;;;;;;103439;1290;545187;-70
2024/01/02 12:33:57;;;;;;;10.10;4.50;;;;;;;;;;104057;1289;545090;-72
2024/01/02 12:37:39;;;;;;;9.60;4.50;;;;;;;;;;103751;1292;545491;-72
2024/01/02 12:41:05;;;;;;;12.30;5.90;;;;;;;;;;104491;1283;545003;-71
2024/01/02 12:44:43;;;;;;;13.70;6.80;;;;;;;;;;103961;1287;544972;-71
2024/01/02 12:48:23;;;;;;;13.00;5.00;;;;;;;;;;103630;1295;544833;-72
2024/01/02 12:52:06;;;;;;;12.70;5.30;;;;;;;;;;103758;1290;544983;-72
2024/01/02 12:55:36;;;;;;;14.90;6.90;;;;;;;;;;103484;1290;544956;-72
2024/01/02 12:59:12;;;;;;;11.10;4.80;;;;;;;;;;103865;1289;546051;-71
2024/01/02 13:02:45;;;;;;;9.40;4.10;;;;;;;;;;103756;1289;544809;-72
2024/01/02 13:06:27;;;;;;;13.40;5.70;;;;;;;;;;103858;1292;544995;-71
2024/01/02 13:10:04;;;;;;;13.50;6.20;;;;;;;;;;104371;1283;544898;-69
2024/01/02 13:13:41;;;;;;;12.20;5.60;;;;;;;;;;103537;1289;544740;-71
2024/01/02 13:17:14;;;;;;;12.90;5.90;;;;;;;;;;104001;1292;544799;-71
2024/01/02 13:20:57;;;;;;;11.00;5.10;;;;;;;;;;103822;1288;544756;-72
2024/01/02 13:24:45;;;;;;;9.90;3.60;;;;;;;;;;103825;1289;545690;-71
2024/01/02 13:28:17;;;;;;;8.50;3.40;;;;;;;;;;103902;1292;544982;-71
2024/01/02 13:31:47;;;;;;;8.60;3.30;;;;;;;;;;104078;1290;544775;-72
2024/01/02 13:35:26;;;;;;;8.60;3.70;;;;;;;;;;104114;1289;545043;-72
2024/01/02 13:39:04;;;;;;;9.30;4.10;;;;;;;;;;103649;1296;545875;-71
2024/01/02 13:42:45;;;;;;;7.30;3.10;;;;;;;;;;103858;1289;545997;-70
2024/01/02 13:46:23;;;;;;;7.80;3.20;;;;;;;;;;103613;1295;544837;-72
2024/01/02 13:49:56;;;;;;;9.50;4.00;;;;;;;;;;103902;1290;545243;-71
2024/01/02 13:53:53;;;;;;;11.00;5.20;;;;;;;;;;103619;1292;546351;-71
2024/01/02 13:57:11;;;;;;;11.90;5.00;;;;;;;;;;103626;1292;544925;-71
2024/01/02 14:00:49;;;;;;;9.00;4.30;;;;;;;;;;103655;1289;545057;-71
2024/01/02 14:04:26;;;;;;;11.80;4.60;;;;;;;;;;103897;1289;545151;-72
2024/01/02 14:08:14;;;;;;;8.10;3.40;;;;;;;;;;103640;1291;547838;-71
2024/01/02 14:12:00;;;;;;;7.40;2.90;;;;;;;;;;103801;1289;545390;-71
2024/01/02 14:15:18;;;;;;;12.10;4.60;;;;;;;;;;103598;1292;545041;-71
2024/01/02 14:18:55;;;;;;;7.30;3.00;;;;;;;;;;103788;1289;544945;-71
2024/01/02 14:22:38;;;;;;;11.00;4.50;;;;;;;;;;103637;1292;544851;-71
2024/01/02 14:26:27;;;;;;;7.90;3.30;;;;;;;;;;103749;1295;545121;-71
2024/01/02 14:29:56;;;;;;;11.00;3.50;;;;;;;;;;103729;1292;545084;-71
2024/01/02 14:33:31;;;;;;;9.70;3.80;;;;;;;;;;103882;1290;544757;-72
2024/01/02 14:37:20;;;;;;;9.30;3.70;;;;;;;;;;103758;1293;547811;-72
2024/01/02 14:40:43;;;;;;;7.80;2.70;;;;;;;;;;103725;1289;544799;-71
2024/01/02 14:44:21;;;;;;;12.50;5.80;;;;;;;;;;103712;1290;545998;-70
2024/01/02 14:48:18;;;;;;;12.10;5.00;;;;;;;;;;103337;1295;548029;-71
2024/01/02 14:51:40;;;;;;;8.80;3.50;;;;;;;;;;103745;1289;545211;-71
2024/01/02 14:55:26;;;;;;;13.10;5.30;;;;;;;;;;103822;1289;544965;-71
2024/01/02 14:59:11;;;;;;;12.00;5.80;;;;;;;;;;103823;1289;544787;-72
2024/01/02 15:02:38;;;;;;;12.90;6.70;;;;;;;;;;103800;1289;544838;-71
2024/01/02 15:06:03;;;;;;;14.00;6.40;;;;;;;;;;103768;1294;544994;-71
2024/01/02 15:09:52;;;;;;;11.30;4.50;;;;;;;;;;103784;1289;544941;-71
2024/01/02 15:13:22;;;;;;;9.90;4.10;;;;;;;;;;103770;1289;544791;-73
2024/01/02 15:17:15;;;;;;;8.60;3.80;;;;;;;;;;103815;1289;545920;-72
2024/01/02 15:20:50;;;;;;;6.40;2.30;;;;;;;;;;103723;1292;544795;-72
2024/01/02 15:24:23;;;;;;;5.90;2.00;;;;;;;;;;103928;1289;545262;-70
2024/01/02 15:27:59;;;;;;;4.90;1.60;;;;;;;;;;105673;1285;545370;-69
2024/01/02 15:31:25;;;;;;;8.00;3.10;;;;;;;;;;104030;1288;545689;-70
2024/01/02 15:35:02;;;;;;;8.50;4.10;;;;;;;;;;103670;1293;545701;-72
2024/01/02 15:38:56;;;;;;;9.50;4.50;;;;;;;;;;103778;1289;545018;-71
2024/01/02 15:42:32;;;;;;;10.60;5.60;;;;;;;;;;103839;1288;545029;-73
2024/01/02 15:46:00;;;;;;;10.60;4.80;;;;;;;;;;103764;1289;544734;-72
2024/01/02 15:49:37;;;;;;;10.50;3.80;;;;;;;;;;104209;1295;545524;-69
2024/01/02 15:53:16;;;;;;;10.90;5.00;;;;;;;;;;104270;1291;544972;-68
2024/01/02 15:56:50;;;;;;;9.80;3.90;;;;;;;;;;104322;1294;544881;-71
2024/01/02 16:00:25;;;;;;;8.40;3.70;;;;;;;;;;104420;1295;545202;-70
2024/01/02 16:04:16;;;;;;;10.30;4.90;;;;;;;;;;104709;1292;544792;-69
2024/01/02 16:07:51;;;;;;;7.50;2.90;;;;;;;;;;104859;1289;545427;-69
2024/01/02 16:11:31;;;;;;;8.90;3.90;;;;;;;;;;104355;1289;545020;-71
2024/01/02 16:14:56;;;;;;;7.70;3.10;;;;;;;;;;104446;1289;545130;-69
2024/01/02 16:18:37;;;;;;;9.70;4.00;;;;;;;;;;104982;1292;545191;-72
2024/01/02 16:22:28;;;;;;;10.90;4.90;;;;;;;;;;103846;1289;545069;-71
2024/01/02 16:26:05;;;;;;;10.60;4.80;;;;;;;;;;103791;1289;545003;-72
2024/01/02 16:29:53;;;;;;;14.80;6.60;;;;;;;;;;103842;1291;545848;-72
2024/01/02 16:33:08;;;;;;;15.40;8.20;;;;;;;;;;103350;1292;544946;-70
2024/01/02 16:36:58;;;;;;;17.80;9.40;;;;;;;;;;103648;1293;545057;-71
2024/01/02 16:40:35;;;;;;;22.40;11.60;;;;;;;;;;104065;1286;544786;-70
2024/01/02 16:43:55;;;;;;;15.70;7.50;;;;;;;;;;103510;1291;544867;-71
2024/01/02 16:47:32;;;;;;;10.60;4.90;;;;;;;;;;103703;1295;545355;-70
2024/01/02 16:51:06;;;;;;;9.90;3.90;;;;;;;;;;103645;1289;544885;-71
2024/01/02 16:54:42;;;;;;;10.80;4.30;;;;;;;;;;103507;1289;545275;-71
2024/01/02 16:58:26;;;;;;;12.30;5.10;;;;;;;;;;103497;1292;544815;-70
2024/01/02 17:02:03;;;;;;;13.10;4.60;;;;;;;;;;104053;1286;544896;-70
2024/01/02 17:05:39;;;;;;;7.90;3.20;;;;;;;;;;103646;1290;544954;-71
2024/01/02 17:09:16;;;;;;;8.70;3.10;;;;;;;;;;103473;1292;545909;-70
2024/01/02 17:13:15;;;;;;;9.90;3.70;;;;;;;;;;103375;1292;545232;-70
2024/01/02 17:16:31;;;;;;;9.60;3.80;;;;;;;;;;103334;1291;545025;-70
2024/01/02 17:20:09;;;;;;;8.70;3.30;;;;;;;;;;103586;1292;544853;-71
2024/01/02 17:23:45;;;;;;;7.50;2.40;;;;;;;;;;103749;1292;544966;-71
2024/01/02 17:27:24;;;;;;;8.60;3.20;;;;;;;;;;103541;1295;545392;-71
2024/01/02 17:31:01;;;;;;;8.70;3.10;;;;;;;;;;103655;1292;545085;-70
2024/01/02 17:34:41;;;;;;;8.10;2.80;;;;;;;;;;103478;1291;545717;-70
2024/01/02 17:38:20;;;;;;;7.80;3.20;;;;;;;;;;103517;1291;545343;-70
2024/01/02 17:41:54;;;;;;;8.60;2.90;;;;;;;;;;103577;1289;544786;-70
2024/01/02 17:45:31;;;;;;;9.50;3.70;;;;;;;;;;103493;1292;544855;-70
2024/01/02 17:49:08;;;;;;;8.90;3.20;;;;;;;;;;103563;1289;545044;-71
2024/01/02 17:52:45;;;;;;;11.40;4.90;;;;;;;;;;103257;1291;545634;-71
2024/01/02 17:56:20;;;;;;;11.80;4.60;;;;;;;;;;103663;1294;545060;-71
2024/01/02 18:00:10;;;;;;;13.20;5.70;;;;;;;;;;103647;1289;544938;-71
2024/01/02 18:03:37;;;;;;;12.80;5.60;;;;;;;;;;103415;1291;546051;-71
2024/01/02 18:07:18;;;;;;;11.40;5.00;;;;;;;;;;103544;1295;545066;-71
2024/01/02 18:11:04;;;;;;;11.60;4.80;;;;;;;;;;103707;1289;545001;-71
2024/01/02 18:14:35;;;;;;;10.10;4.10;;;;;;;;;;104330;1281;545311;-71
2024/01/02 18:18:08;;;;;;;11.00;4.50;;;;;;;;;;103488;1290;544998;-71
2024/01/02 18:21:59;;;;;;;12.80;5.60;;;;;;;;;;103522;1292;545060;-71
2024/01/02 18:26:03;;;;;;;15.00;6.50;;;;;;;;;;103596;1290;545529;-71
2024/01/02 18:29:00;;;;;;;10.30;4.60;;;;;;;;;;103647;1290;545591;-71
2024/01/02 18:32:41;;;;;;;12.60;5.70;;;;;;;;;;103716;1289;545386;-72
2024/01/02 18:36:23;;;;;;;9.90;4.40;;;;;;;;;;103553;1294;545315;-71
2024/01/02 18:39:53;;;;;;;11.60;4.60;;;;;;;;;;103584;1292;545069;-72
2024/01/02 18:43:35;;;;;;;9.20;3.80;;;;;;;;;;103680;1291;546051;-71
2024/01/02 18:47:13;;;;;;;12.60;5.10;;;;;;;;;;103607;1292;544889;-71
2024/01/02 18:50:56;;;;;;;9.60;3.70;;;;;;;;;;103724;1289;544887;-71
2024/01/02 18:54:25;;;;;;;11.00;4.20;;;;;;;;;;103765;1289;546670;-70
2024/01/02 18:58:00;;;;;;;9.50;3.80;;;;;;;;;;103460;1291;546190;-71
2024/01/02 19:01:55;;;;;;;10.70;3.70;;;;;;;;;;103531;1289;546146;-72
2024/01/02 19:05:16;;;;;;;8.80;3.50;;;;;;;;;;103553;1292;544786;-72
2024/01/02 19:09:14;;;;;;;11.80;3.70;;;;;;;;;;103522;1290;547981;-71
2024/01/02 19:12:31;;;;;;;9.40;3.70;;;;;;;;;;103390;1291;545535;-71
2024/01/02 19:16:04;;;;;;;9.80;4.10;;;;;;;;;;103667;1294;545462;-71
2024/01/02 19:19:51;;;;;;;12.20;4.70;;;;;;;;;;103443;1295;547984;-71
2024/01/02 19:23:23;;;;;;;10.90;3.90;;;;;;;;;;103573;1293;544872;-71
2024/01/02 19:27:00;;;;;;;8.50;3.10;;;;;;;;;;103678;1296;545426;-71
2024/01/02 19:30:42;;;;;;;9.40;3.30;;;;;;;;;;103384;1295;546127;-71
2024/01/02 19:34:11;;;;;;;9.90;3.90;;;;;;;;;;103670;1289;546379;-71
2024/01/02 19:37:53;;;;;;;9.60;3.40;;;;;;;;;;103700;1289;545549;-72
2024/01/02 19:41:26;;;;;;;8.60;3.50;;;;;;;;;;103627;1292;544920;-72
2024/01/02 19:45:08;;;;;;;9.50;3.20;;;;;;;;;;103609;1289;544789;-71
2024/01/02 19:48:46;;;;;;;12.30;4.60;;;;;;;;;;103533;1293;544971;-72
2024/01/02 19:52:22;;;;;;;14.30;6.20;;;;;;;;;;103631;1288;545743;-73
2024/01/02 19:56:00;;;;;;;23.30;10.60;;;;;;;;;;103374;1293;546557;-71
2024/01/02 19:59:37;;;;;;;19.90;8.50;;;;;;;;;;103457;1289;545026;-72
2024/01/02 20:03:22;;;;;;;21.90;9.30;;;;;;;;;;103431;1292;544856;-71
2024/01/02 20:06:52;;;;;;;19.70;9.60;;;;;;;;;;103848;1292;544759;-72
2024/01/02 20:10:30;;;;;;;22.50;9.60;;;;;;;;;;103784;1291;545640;-71
2024/01/02 20:14:22;;;;;;;24.20;10.60;;;;;;;;;;103734;1289;544859;-71
2024/01/02 20:17:44;;;;;;;16.30;6.10;;;;;;;;;;103422;1295;545429;-68
2024/01/02 20:21:24;;;;;;;16.80;5.60;;;;;;;;;;103587;1289;545025;-71
2024/01/02 20:25:00;;;;;;;14.00;5.30;;;;;;;;;;103534;1291;544996;-71
2024/01/02 20:28:39;;;;;;;7.10;2.80;;;;;;;;;;103611;1302;544961;-69
2024/01/02 20:32:14;;;;;;;8.80;2.90;;;;;;;;;;103468;1288;544768;-69
2024/01/02 20:35:54;;;;;;;9.90;3.50;;;;;;;;;;103653;1289;544961;-71
2024/01/02 20:39:29;;;;;;;10.80;3.40;;;;;;;;;;103527;1295;544800;-71
2024/01/02 20:43:27;;;;;;;10.50;3.90;;;;;;;;;;103472;1292;545312;-71
2024/01/02 20:46:48;;;;;;;10.80;4.00;;;;;;;;;;103525;1292;545143;-71
2024/01/02 20:50:24;;;;;;;9.90;3.60;;;;;;;;;;103509;1291;545022;-70
2024/01/02 20:53:59;;;;;;;8.50;3.10;;;;;;;;;;103464;1291;545508;-70